GJONW EGMD-EGBO
Flight info
| Callsign | GJONW |
|---|---|
| Flight time | 0h 53m |
| Altitude | 3500 |
| Route | BPK L10 DTY DCT DISIT DCT EMJEE |
| Aircraft | BT36/L-BDFGLORY/S |
Departure
| Time | 2026-04-29 18:49 |
|---|---|
| Airport | Lydd London Ashford Airport (EGMD) |
Arrival
| Time | 2026-04-29 19:43 |
|---|---|
| Airport | Wolverhampton Halfpenny Green Airport (EGBO) |
| Time | Latitude | Longitude | Altitude | Speed | Heading |
|---|---|---|---|---|---|
| 2026-04-29 18:41 | 50.95466 | 0.93470 | 14 ft | 0 kts | 304° |
| 2026-04-29 18:46 | 50.95478 | 0.93448 | 12 ft | 6 kts | 349° |
| 2026-04-29 18:47 | 50.95521 | 0.93495 | 14 ft | 10 kts | 43° |
| 2026-04-29 18:47 | 50.95491 | 0.93596 | 15 ft | 13 kts | 146° |
| 2026-04-29 18:47 | 50.95415 | 0.93543 | 15 ft | 17 kts | 207° |
| 2026-04-29 18:47 | 50.95282 | 0.93442 | 15 ft | 26 kts | 170° |
| 2026-04-29 18:48 | 50.95226 | 0.93517 | 16 ft | 0 kts | 32° |
| 2026-04-29 18:48 | 50.95514 | 0.93801 | 22 ft | 83 kts | 33° |
| 2026-04-29 18:49 | 50.96107 | 0.94210 | 204 ft | 106 kts | 27° |
| 2026-04-29 18:49 | 50.96811 | 0.94735 | 407 ft | 116 kts | 32° |
| 2026-04-29 18:49 | 50.97557 | 0.95311 | 612 ft | 122 kts | 31° |
| 2026-04-29 18:49 | 50.98320 | 0.95888 | 801 ft | 125 kts | 31° |
| 2026-04-29 18:50 | 50.99137 | 0.96462 | 991 ft | 134 kts | 23° |
| 2026-04-29 18:50 | 51.00114 | 0.96105 | 1173 ft | 163 kts | 333° |
| 2026-04-29 18:50 | 51.00752 | 0.94499 | 1352 ft | 182 kts | 295° |
| 2026-04-29 18:50 | 51.01138 | 0.92561 | 1552 ft | 186 kts | 293° |
| 2026-04-29 18:51 | 51.01544 | 0.90540 | 1750 ft | 198 kts | 293° |
| 2026-04-29 18:51 | 51.01979 | 0.88408 | 1952 ft | 206 kts | 294° |
| 2026-04-29 18:51 | 51.02421 | 0.86202 | 2148 ft | 212 kts | 293° |
| 2026-04-29 18:51 | 51.02920 | 0.83994 | 2339 ft | 212 kts | 301° |
| 2026-04-29 18:52 | 51.03741 | 0.82105 | 2525 ft | 204 kts | 325° |
| 2026-04-29 18:52 | 51.04842 | 0.80736 | 2716 ft | 201 kts | 334° |
| 2026-04-29 18:52 | 51.05973 | 0.79406 | 2909 ft | 203 kts | 331° |
| 2026-04-29 18:52 | 51.07069 | 0.78018 | 3070 ft | 206 kts | 329° |
| 2026-04-29 18:53 | 51.08199 | 0.76563 | 3078 ft | 209 kts | 329° |
| 2026-04-29 18:53 | 51.09295 | 0.75151 | 3086 ft | 198 kts | 329° |
| 2026-04-29 18:53 | 51.10347 | 0.73799 | 3087 ft | 191 kts | 330° |
| 2026-04-29 18:53 | 51.11375 | 0.72487 | 3093 ft | 188 kts | 330° |
| 2026-04-29 18:54 | 51.12385 | 0.71191 | 3100 ft | 186 kts | 330° |
| 2026-04-29 18:54 | 51.13391 | 0.69899 | 3097 ft | 185 kts | 330° |
| 2026-04-29 18:54 | 51.14394 | 0.68610 | 3110 ft | 184 kts | 330° |
| 2026-04-29 18:54 | 51.15388 | 0.67330 | 3120 ft | 184 kts | 330° |
| 2026-04-29 18:55 | 51.16381 | 0.66053 | 3124 ft | 183 kts | 330° |
| 2026-04-29 18:55 | 51.17369 | 0.64779 | 3129 ft | 183 kts | 330° |
| 2026-04-29 18:55 | 51.18359 | 0.63504 | 3131 ft | 183 kts | 329° |
| 2026-04-29 18:55 | 51.19349 | 0.62230 | 3138 ft | 183 kts | 330° |
| 2026-04-29 18:56 | 51.20342 | 0.60948 | 3141 ft | 184 kts | 330° |
| 2026-04-29 18:56 | 51.21326 | 0.59677 | 3143 ft | 184 kts | 330° |
| 2026-04-29 18:56 | 51.22318 | 0.58396 | 3144 ft | 184 kts | 330° |
| 2026-04-29 18:56 | 51.23316 | 0.57107 | 3148 ft | 184 kts | 330° |
| 2026-04-29 18:57 | 51.24314 | 0.55818 | 3149 ft | 185 kts | 330° |
| 2026-04-29 18:57 | 51.25316 | 0.54521 | 3150 ft | 185 kts | 330° |
| 2026-04-29 18:57 | 51.26319 | 0.53223 | 3150 ft | 186 kts | 330° |
| 2026-04-29 18:57 | 51.27324 | 0.51921 | 3147 ft | 185 kts | 330° |
| 2026-04-29 18:58 | 51.28327 | 0.50622 | 3148 ft | 186 kts | 330° |
| 2026-04-29 18:58 | 51.29338 | 0.49311 | 3137 ft | 187 kts | 329° |
| 2026-04-29 18:58 | 51.30347 | 0.48000 | 3140 ft | 186 kts | 330° |
| 2026-04-29 18:58 | 51.31355 | 0.46692 | 3143 ft | 186 kts | 330° |
| 2026-04-29 18:59 | 51.32362 | 0.45385 | 3138 ft | 186 kts | 330° |
| 2026-04-29 18:59 | 51.33368 | 0.44078 | 3035 ft | 187 kts | 330° |
| 2026-04-29 18:59 | 51.34364 | 0.42782 | 3034 ft | 187 kts | 330° |
| 2026-04-29 18:59 | 51.35390 | 0.41448 | 3033 ft | 189 kts | 330° |
| 2026-04-29 19:00 | 51.36398 | 0.40138 | 3026 ft | 189 kts | 330° |
| 2026-04-29 19:00 | 51.37421 | 0.38803 | 3041 ft | 189 kts | 330° |
| 2026-04-29 19:00 | 51.38446 | 0.37467 | 3035 ft | 190 kts | 330° |
| 2026-04-29 19:00 | 51.39466 | 0.36135 | 3034 ft | 189 kts | 330° |
| 2026-04-29 19:01 | 51.40485 | 0.34804 | 3041 ft | 189 kts | 330° |
| 2026-04-29 19:01 | 51.41501 | 0.33479 | 3044 ft | 188 kts | 331° |
| 2026-04-29 19:01 | 51.42516 | 0.32153 | 3044 ft | 188 kts | 330° |
| 2026-04-29 19:01 | 51.43534 | 0.30822 | 3050 ft | 189 kts | 330° |
| 2026-04-29 19:02 | 51.44540 | 0.29504 | 3048 ft | 189 kts | 330° |
| 2026-04-29 19:02 | 51.45228 | 0.28605 | 3050 ft | 189 kts | 330° |
| 2026-04-29 19:02 | 51.46576 | 0.26841 | 3050 ft | 189 kts | 330° |
| 2026-04-29 19:02 | 51.47592 | 0.25510 | 3051 ft | 189 kts | 330° |
| 2026-04-29 19:03 | 51.48607 | 0.24178 | 3048 ft | 188 kts | 330° |
| 2026-04-29 19:03 | 51.49622 | 0.22846 | 3049 ft | 188 kts | 330° |
| 2026-04-29 19:03 | 51.50640 | 0.21511 | 3041 ft | 188 kts | 330° |
| 2026-04-29 19:03 | 51.51644 | 0.20191 | 3050 ft | 188 kts | 330° |
| 2026-04-29 19:04 | 51.52658 | 0.18859 | 3054 ft | 189 kts | 330° |
| 2026-04-29 19:04 | 51.53675 | 0.17521 | 3054 ft | 189 kts | 330° |
| 2026-04-29 19:04 | 51.54691 | 0.16183 | 3053 ft | 189 kts | 330° |
| 2026-04-29 19:04 | 51.55708 | 0.14846 | 3054 ft | 189 kts | 330° |
| 2026-04-29 19:05 | 51.56725 | 0.13504 | 3045 ft | 189 kts | 330° |
| 2026-04-29 19:05 | 51.57741 | 0.12166 | 3049 ft | 188 kts | 330° |
| 2026-04-29 19:05 | 51.58757 | 0.10825 | 3048 ft | 189 kts | 330° |
| 2026-04-29 19:05 | 51.59774 | 0.09485 | 3047 ft | 189 kts | 330° |
| 2026-04-29 19:06 | 51.60450 | 0.08593 | 3048 ft | 189 kts | 330° |
| 2026-04-29 19:06 | 51.61471 | 0.07244 | 3046 ft | 190 kts | 329° |
| 2026-04-29 19:06 | 51.63503 | 0.04554 | 3049 ft | 189 kts | 329° |
| 2026-04-29 19:07 | 51.64524 | 0.03212 | 3043 ft | 190 kts | 329° |
| 2026-04-29 19:07 | 51.65201 | 0.02315 | 3045 ft | 190 kts | 329° |
| 2026-04-29 19:07 | 51.66561 | 0.00506 | 3065 ft | 187 kts | 329° |
| 2026-04-29 19:07 | 51.67544 | -0.00805 | 3273 ft | 181 kts | 329° |
| 2026-04-29 19:08 | 51.68505 | -0.02080 | 3401 ft | 177 kts | 330° |
| 2026-04-29 19:08 | 51.69454 | -0.03335 | 3528 ft | 176 kts | 329° |
| 2026-04-29 19:08 | 51.70384 | -0.04570 | 3632 ft | 176 kts | 330° |
| 2026-04-29 19:08 | 51.71349 | -0.05844 | 3638 ft | 181 kts | 329° |
| 2026-04-29 19:09 | 51.72333 | -0.07153 | 3647 ft | 185 kts | 329° |
| 2026-04-29 19:09 | 51.73328 | -0.08476 | 3654 ft | 187 kts | 329° |
| 2026-04-29 19:09 | 51.74332 | -0.09817 | 3660 ft | 188 kts | 329° |
| 2026-04-29 19:09 | 51.75273 | -0.11309 | 3659 ft | 194 kts | 311° |
| 2026-04-29 19:10 | 51.76033 | -0.13116 | 3662 ft | 194 kts | 310° |
| 2026-04-29 19:10 | 51.76810 | -0.14899 | 3666 ft | 194 kts | 311° |
| 2026-04-29 19:10 | 51.77590 | -0.16682 | 3667 ft | 194 kts | 311° |
| 2026-04-29 19:10 | 51.78368 | -0.18471 | 3668 ft | 194 kts | 311° |
| 2026-04-29 19:11 | 51.79144 | -0.20260 | 3669 ft | 195 kts | 311° |
| 2026-04-29 19:11 | 51.79923 | -0.22053 | 3667 ft | 195 kts | 311° |
| 2026-04-29 19:11 | 51.80699 | -0.23845 | 3665 ft | 194 kts | 311° |
| 2026-04-29 19:11 | 51.81474 | -0.25630 | 3545 ft | 194 kts | 310° |
| 2026-04-29 19:12 | 51.82251 | -0.27424 | 3550 ft | 195 kts | 310° |
| 2026-04-29 19:12 | 51.83032 | -0.29229 | 3550 ft | 197 kts | 309° |
| 2026-04-29 19:12 | 51.83808 | -0.31022 | 3551 ft | 197 kts | 309° |
| 2026-04-29 19:12 | 51.84338 | -0.32248 | 3551 ft | 198 kts | 309° |
| 2026-04-29 19:13 | 51.85384 | -0.34672 | 3548 ft | 198 kts | 309° |
| 2026-04-29 19:13 | 51.86174 | -0.36499 | 3549 ft | 198 kts | 309° |
| 2026-04-29 19:13 | 51.86964 | -0.38333 | 3548 ft | 198 kts | 309° |
| 2026-04-29 19:13 | 51.87749 | -0.40156 | 3549 ft | 196 kts | 309° |
| 2026-04-29 19:14 | 51.88529 | -0.41962 | 3549 ft | 196 kts | 309° |
| 2026-04-29 19:14 | 51.89309 | -0.43778 | 3549 ft | 196 kts | 309° |
| 2026-04-29 19:14 | 51.90091 | -0.45594 | 3548 ft | 197 kts | 309° |
| 2026-04-29 19:14 | 51.90873 | -0.47415 | 3549 ft | 197 kts | 309° |
| 2026-04-29 19:15 | 51.91655 | -0.49235 | 3549 ft | 197 kts | 309° |
| 2026-04-29 19:15 | 51.92438 | -0.51059 | 3549 ft | 196 kts | 309° |
| 2026-04-29 19:15 | 51.93216 | -0.52872 | 3552 ft | 196 kts | 309° |
| 2026-04-29 19:15 | 51.93997 | -0.54695 | 3552 ft | 197 kts | 309° |
| 2026-04-29 19:16 | 51.94778 | -0.56518 | 3553 ft | 197 kts | 309° |
| 2026-04-29 19:16 | 51.95558 | -0.58341 | 3555 ft | 197 kts | 309° |
| 2026-04-29 19:16 | 51.96341 | -0.60173 | 3553 ft | 197 kts | 309° |
| 2026-04-29 19:16 | 51.97123 | -0.62003 | 3552 ft | 197 kts | 309° |
| 2026-04-29 19:17 | 51.97889 | -0.63799 | 3552 ft | 196 kts | 309° |
| 2026-04-29 19:17 | 51.98663 | -0.65610 | 3553 ft | 196 kts | 309° |
| 2026-04-29 19:17 | 51.99437 | -0.67425 | 3551 ft | 196 kts | 309° |
| 2026-04-29 19:17 | 52.00205 | -0.69231 | 3556 ft | 193 kts | 310° |
| 2026-04-29 19:18 | 52.00973 | -0.71030 | 3559 ft | 194 kts | 309° |
| 2026-04-29 19:18 | 52.01495 | -0.72254 | 3560 ft | 196 kts | 309° |
| 2026-04-29 19:18 | 52.02523 | -0.74672 | 3564 ft | 197 kts | 309° |
| 2026-04-29 19:18 | 52.03305 | -0.76514 | 3581 ft | 198 kts | 309° |
| 2026-04-29 19:19 | 52.04087 | -0.78356 | 3577 ft | 198 kts | 309° |
| 2026-04-29 19:19 | 52.04868 | -0.80197 | 3574 ft | 198 kts | 309° |
| 2026-04-29 19:19 | 52.05651 | -0.82043 | 3574 ft | 198 kts | 309° |
| 2026-04-29 19:19 | 52.06432 | -0.83887 | 3573 ft | 198 kts | 309° |
| 2026-04-29 19:20 | 52.07212 | -0.85729 | 3557 ft | 198 kts | 309° |
| 2026-04-29 19:20 | 52.07994 | -0.87577 | 3558 ft | 198 kts | 309° |
| 2026-04-29 19:20 | 52.08765 | -0.89400 | 3555 ft | 198 kts | 309° |
| 2026-04-29 19:20 | 52.09549 | -0.91255 | 3566 ft | 198 kts | 309° |
| 2026-04-29 19:21 | 52.10332 | -0.93110 | 3570 ft | 198 kts | 308° |
| 2026-04-29 19:21 | 52.11126 | -0.94990 | 3470 ft | 204 kts | 308° |
| 2026-04-29 19:21 | 52.11936 | -0.96912 | 3346 ft | 207 kts | 308° |
| 2026-04-29 19:21 | 52.12753 | -0.98855 | 3230 ft | 208 kts | 308° |
| 2026-04-29 19:22 | 52.13571 | -1.00798 | 3113 ft | 208 kts | 309° |
| 2026-04-29 19:22 | 52.14375 | -1.02714 | 3109 ft | 202 kts | 309° |
| 2026-04-29 19:22 | 52.15156 | -1.04570 | 3109 ft | 200 kts | 309° |
| 2026-04-29 19:22 | 52.15938 | -1.06430 | 3109 ft | 199 kts | 309° |
| 2026-04-29 19:23 | 52.16720 | -1.08290 | 3109 ft | 199 kts | 310° |
| 2026-04-29 19:23 | 52.17469 | -1.10192 | 3100 ft | 202 kts | 299° |
| 2026-04-29 19:23 | 52.17787 | -1.12427 | 3070 ft | 204 kts | 270° |
| 2026-04-29 19:23 | 52.17600 | -1.14693 | 3047 ft | 201 kts | 253° |
| 2026-04-29 19:24 | 52.17309 | -1.16925 | 3031 ft | 202 kts | 255° |
| 2026-04-29 19:24 | 52.17026 | -1.19164 | 3007 ft | 201 kts | 255° |
| 2026-04-29 19:24 | 52.16745 | -1.21392 | 2985 ft | 199 kts | 254° |
| 2026-04-29 19:24 | 52.16463 | -1.23600 | 2965 ft | 200 kts | 253° |
| 2026-04-29 19:25 | 52.16179 | -1.25821 | 2938 ft | 201 kts | 253° |
| 2026-04-29 19:25 | 52.15895 | -1.28050 | 2913 ft | 200 kts | 254° |
| 2026-04-29 19:25 | 52.15611 | -1.30266 | 2888 ft | 200 kts | 253° |
| 2026-04-29 19:25 | 52.15325 | -1.32496 | 2862 ft | 201 kts | 253° |
| 2026-04-29 19:26 | 52.15038 | -1.34730 | 2836 ft | 202 kts | 253° |
| 2026-04-29 19:26 | 52.14750 | -1.36967 | 2812 ft | 203 kts | 253° |
| 2026-04-29 19:26 | 52.14461 | -1.39211 | 2788 ft | 202 kts | 253° |
| 2026-04-29 19:26 | 52.14176 | -1.41418 | 2761 ft | 201 kts | 254° |
| 2026-04-29 19:27 | 52.13889 | -1.43646 | 2732 ft | 201 kts | 253° |
| 2026-04-29 19:27 | 52.13602 | -1.45866 | 2705 ft | 200 kts | 253° |
| 2026-04-29 19:27 | 52.13315 | -1.48075 | 2687 ft | 200 kts | 254° |
| 2026-04-29 19:27 | 52.13027 | -1.50297 | 2655 ft | 201 kts | 254° |
| 2026-04-29 19:28 | 52.12738 | -1.52523 | 2634 ft | 201 kts | 254° |
| 2026-04-29 19:28 | 52.12448 | -1.54746 | 2627 ft | 200 kts | 255° |
| 2026-04-29 19:28 | 52.12161 | -1.56951 | 2624 ft | 199 kts | 255° |
| 2026-04-29 19:28 | 52.11872 | -1.59164 | 2619 ft | 200 kts | 255° |
| 2026-04-29 19:29 | 52.11581 | -1.61367 | 2614 ft | 199 kts | 255° |
| 2026-04-29 19:29 | 52.11298 | -1.63569 | 2609 ft | 198 kts | 255° |
| 2026-04-29 19:29 | 52.11011 | -1.65765 | 2606 ft | 198 kts | 253° |
| 2026-04-29 19:29 | 52.10720 | -1.67952 | 2604 ft | 198 kts | 253° |
| 2026-04-29 19:30 | 52.10431 | -1.70143 | 2598 ft | 197 kts | 253° |
| 2026-04-29 19:30 | 52.10145 | -1.72294 | 2597 ft | 198 kts | 253° |
| 2026-04-29 19:30 | 52.09832 | -1.74488 | 2592 ft | 199 kts | 253° |
| 2026-04-29 19:30 | 52.09519 | -1.76677 | 2584 ft | 198 kts | 253° |
| 2026-04-29 19:31 | 52.09210 | -1.78867 | 2583 ft | 199 kts | 253° |
| 2026-04-29 19:31 | 52.08902 | -1.81058 | 2576 ft | 198 kts | 253° |
| 2026-04-29 19:31 | 52.08607 | -1.83237 | 2570 ft | 198 kts | 259° |
| 2026-04-29 19:31 | 52.08862 | -1.85393 | 2542 ft | 196 kts | 306° |
| 2026-04-29 19:32 | 52.09830 | -1.86773 | 2478 ft | 178 kts | 348° |
| 2026-04-29 19:32 | 52.10975 | -1.87535 | 2433 ft | 181 kts | 344° |
| 2026-04-29 19:32 | 52.12086 | -1.88549 | 2377 ft | 184 kts | 339° |
| 2026-04-29 19:32 | 52.13171 | -1.89629 | 2323 ft | 176 kts | 338° |
| 2026-04-29 19:33 | 52.14169 | -1.90631 | 2268 ft | 163 kts | 340° |
| 2026-04-29 19:33 | 52.15114 | -1.91568 | 2208 ft | 155 kts | 341° |
| 2026-04-29 19:33 | 52.16005 | -1.92444 | 2146 ft | 148 kts | 342° |
| 2026-04-29 19:33 | 52.16880 | -1.93308 | 2087 ft | 143 kts | 342° |
| 2026-04-29 19:34 | 52.17715 | -1.94133 | 2026 ft | 139 kts | 342° |
| 2026-04-29 19:34 | 52.18518 | -1.94927 | 1965 ft | 135 kts | 343° |
| 2026-04-29 19:34 | 52.19318 | -1.95715 | 1863 ft | 135 kts | 343° |
| 2026-04-29 19:34 | 52.20216 | -1.96581 | 1752 ft | 166 kts | 340° |
| 2026-04-29 19:35 | 52.21256 | -1.97612 | 1659 ft | 182 kts | 338° |
| 2026-04-29 19:35 | 52.22358 | -1.98720 | 1572 ft | 189 kts | 339° |
| 2026-04-29 19:35 | 52.23481 | -1.99841 | 1573 ft | 188 kts | 338° |
| 2026-04-29 19:35 | 52.24594 | -2.00945 | 1570 ft | 187 kts | 337° |
| 2026-04-29 19:36 | 52.25704 | -2.02052 | 1564 ft | 185 kts | 337° |
| 2026-04-29 19:36 | 52.26781 | -2.03119 | 1562 ft | 184 kts | 337° |
| 2026-04-29 19:36 | 52.27894 | -2.04230 | 1564 ft | 185 kts | 336° |
| 2026-04-29 19:36 | 52.28980 | -2.05307 | 1562 ft | 186 kts | 337° |
| 2026-04-29 19:37 | 52.30093 | -2.06411 | 1567 ft | 188 kts | 337° |
| 2026-04-29 19:37 | 52.30854 | -2.07170 | 1529 ft | 192 kts | 337° |
| 2026-04-29 19:37 | 52.32391 | -2.08701 | 1363 ft | 197 kts | 335° |
| 2026-04-29 19:37 | 52.33553 | -2.09866 | 1236 ft | 191 kts | 336° |
| 2026-04-29 19:38 | 52.34643 | -2.10956 | 1100 ft | 178 kts | 337° |
| 2026-04-29 19:38 | 52.35661 | -2.11979 | 1061 ft | 164 kts | 335° |
| 2026-04-29 19:38 | 52.36591 | -2.12917 | 1070 ft | 151 kts | 337° |
| 2026-04-29 19:38 | 52.37475 | -2.13783 | 1069 ft | 145 kts | 337° |
| 2026-04-29 19:39 | 52.38322 | -2.14624 | 1069 ft | 142 kts | 338° |
| 2026-04-29 19:39 | 52.39160 | -2.15464 | 1069 ft | 141 kts | 338° |
| 2026-04-29 19:39 | 52.40000 | -2.16304 | 1073 ft | 142 kts | 338° |
| 2026-04-29 19:39 | 52.40843 | -2.17147 | 1074 ft | 145 kts | 338° |
| 2026-04-29 19:40 | 52.41706 | -2.18010 | 1083 ft | 146 kts | 338° |
| 2026-04-29 19:40 | 52.42573 | -2.18883 | 1071 ft | 146 kts | 339° |
| 2026-04-29 19:40 | 52.43431 | -2.19745 | 1069 ft | 144 kts | 338° |
| 2026-04-29 19:40 | 52.44305 | -2.20498 | 1070 ft | 140 kts | 347° |
| 2026-04-29 19:41 | 52.45197 | -2.21137 | 1076 ft | 141 kts | 345° |
| 2026-04-29 19:41 | 52.46099 | -2.21803 | 1085 ft | 144 kts | 345° |
| 2026-04-29 19:41 | 52.47000 | -2.22467 | 1015 ft | 134 kts | 346° |
| 2026-04-29 19:41 | 52.47798 | -2.23066 | 923 ft | 119 kts | 346° |
| 2026-04-29 19:42 | 52.48524 | -2.23599 | 824 ft | 111 kts | 346° |
| 2026-04-29 19:42 | 52.48751 | -2.23768 | 777 ft | 111 kts | 346° |
| 2026-04-29 19:42 | 52.49905 | -2.24614 | 573 ft | 104 kts | 346° |
| 2026-04-29 19:42 | 52.50555 | -2.25092 | 452 ft | 101 kts | 345° |
| 2026-04-29 19:43 | 52.51168 | -2.25556 | 349 ft | 92 kts | 349° |
| 2026-04-29 19:43 | 52.51734 | -2.25945 | 281 ft | 80 kts | 341° |
| 2026-04-29 19:43 | 52.52023 | -2.26256 | 274 ft | 12 kts | 238° |
| 2026-04-29 19:43 | 52.51958 | -2.26276 | 274 ft | 11 kts | 194° |
| 2026-04-29 19:44 | 52.51876 | -2.26357 | 276 ft | 20 kts | 212° |
| 2026-04-29 19:44 | 52.51751 | -2.26518 | 277 ft | 19 kts | 219° |
| 2026-04-29 19:44 | 52.51702 | -2.26486 | 278 ft | 14 kts | 97° |
| 2026-04-29 19:44 | 52.51642 | -2.26423 | 277 ft | 12 kts | 186° |
| 2026-04-29 19:45 | 52.51569 | -2.26429 | 280 ft | 6 kts | 150° |
| 2026-04-29 19:45 | 52.51573 | -2.26410 | 279 ft | 0 kts | 24° |